Time;durP1;ratioP1;P1;durP2;ratioP2;P2;SDS_P1;SDS_P2;PMS_P1;PMS_P2;Temp;Humidity;BMP_temperature;BMP_pressure;BME280_temperature;BME280_humidity;BME280_pressure;Samples;Min_cycle;Max_cycle;Signal;HPM_P1;HPM_P2
2023/10/10 00:00:23;;;;;;;10.73;7.23;;;;;;;11.24;92.30;101309.56;4990281;28;20224;-72
2023/10/10 00:02:51;;;;;;;10.27;7.03;;;;;;;11.25;93.03;101313.75;5010921;22;20484;-69
2023/10/10 00:05:18;;;;;;;9.63;7.27;;;;;;;11.25;92.16;101305.81;4999200;28;20218;-70
2023/10/10 00:07:44;;;;;;;8.57;6.90;;;;;;;11.25;92.68;101298.69;5000051;28;20209;-70
2023/10/10 00:10:13;;;;;;;8.83;7.20;;;;;;;11.25;92.71;101305.81;5002792;28;20292;-69
2023/10/10 00:12:40;;;;;;;9.13;6.77;;;;;;;11.27;93.05;101295.72;4992393;28;20240;-70
2023/10/10 00:15:10;;;;;;;9.70;6.27;;;;;;;11.25;92.65;101296.03;4987027;28;20211;-70
2023/10/10 00:17:37;;;;;;;10.37;7.03;;;;;;;11.26;92.76;101291.50;4989061;28;21945;-70
2023/10/10 00:20:17;;;;;;;9.47;6.40;;;;;;;11.27;93.08;101293.06;4987692;28;21006;-70
2023/10/10 00:22:47;;;;;;;8.60;6.37;;;;;;;11.28;93.13;101289.34;4988437;28;20680;-70
2023/10/10 00:25:23;;;;;;;9.27;5.90;;;;;;;11.28;93.00;101295.41;4990113;28;20220;-70
2023/10/10 00:27:59;;;;;;;8.83;6.77;;;;;;;11.26;93.07;101300.25;4986033;28;20205;-70
2023/10/10 00:30:31;;;;;;;8.60;6.60;;;;;;;11.28;92.83;101297.28;4989846;28;20643;-70
2023/10/10 00:32:58;;;;;;;8.37;6.43;;;;;;;11.25;93.08;101282.81;4989309;28;21029;-70
2023/10/10 00:35:27;;;;;;;9.23;6.33;;;;;;;11.27;92.53;101279.84;4986550;28;20216;-69
2023/10/10 00:37:56;;;;;;;6.73;6.00;;;;;;;11.29;92.77;101285.63;4987202;28;20229;-70
2023/10/10 00:40:30;;;;;;;9.57;6.20;;;;;;;11.30;92.34;101284.53;4985710;28;20705;-70
2023/10/10 00:42:58;;;;;;;9.40;6.87;;;;;;;11.30;92.89;101280.03;4988571;28;20323;-69
2023/10/10 00:45:30;;;;;;;9.87;6.87;;;;;;;11.31;92.96;101284.22;4989401;28;20221;-70
2023/10/10 00:48:00;;;;;;;7.53;6.17;;;;;;;11.32;92.74;101284.97;4987814;28;21575;-69
2023/10/10 00:50:27;;;;;;;8.70;6.37;;;;;;;11.31;92.70;101281.56;4987279;28;20790;-70
2023/10/10 00:52:56;;;;;;;8.37;6.40;;;;;;;11.33;93.15;101268.03;4987604;28;21359;-70
2023/10/10 00:55:26;;;;;;;7.03;5.63;;;;;;;11.33;93.35;101284.66;4984632;28;21683;-69
2023/10/10 00:57:52;;;;;;;9.67;6.57;;;;;;;11.34;93.08;101270.34;4984642;28;20224;-70
2023/10/10 01:00:20;;;;;;;11.47;6.47;;;;;;;11.34;92.75;101272.25;4992726;28;20379;-70
2023/10/10 01:02:50;;;;;;;8.30;6.27;;;;;;;11.35;93.01;101276.44;4988084;28;20241;-70
2023/10/10 01:05:23;;;;;;;8.97;5.83;;;;;;;11.34;92.66;101257.13;4986175;28;20214;-70
2023/10/10 01:07:51;;;;;;;8.10;6.77;;;;;;;11.35;92.46;101257.91;4986711;28;20223;-69
2023/10/10 01:10:18;;;;;;;7.93;6.40;;;;;;;11.36;92.91;101257.63;4988752;28;20754;-69
2023/10/10 01:12:46;;;;;;;8.37;6.50;;;;;;;11.38;93.37;101265.25;4988363;28;20829;-69
2023/10/10 01:15:16;;;;;;;7.67;6.03;;;;;;;11.39;93.23;101259.63;4991249;28;20213;-70
2023/10/10 01:17:43;;;;;;;8.03;6.27;;;;;;;11.40;92.52;101263.03;4986141;28;20220;-70
2023/10/10 01:20:18;;;;;;;9.47;6.17;;;;;;;11.40;92.59;101255.91;4987153;28;20460;-70
2023/10/10 01:22:48;;;;;;;10.17;6.90;;;;;;;11.41;92.99;101254.00;4989109;28;20581;-69
2023/10/10 01:28:03;;;;;;;7.83;6.33;;;;;;;11.40;92.55;101252.47;4988739;28;20349;-70
2023/10/10 01:30:56;;;;;;;9.53;6.63;;;;;;;11.39;93.00;101256.97;4984679;28;20221;-70
2023/10/10 01:33:35;;;;;;;8.30;6.43;;;;;;;11.40;92.93;101249.81;4992154;28;20824;-70
2023/10/10 01:36:03;;;;;;;7.83;5.90;;;;;;;11.39;92.32;101241.09;4988642;28;20417;-70
2023/10/10 01:38:59;;;;;;;7.90;5.97;;;;;;;11.40;92.22;101252.47;4989546;28;20971;-69
2023/10/10 01:41:31;;;;;;;9.17;6.53;;;;;;;11.39;92.77;101253.56;5003985;28;20291;-70
2023/10/10 01:44:08;;;;;;;10.50;6.50;;;;;;;11.36;92.86;101254.19;4990444;28;20211;-70
2023/10/10 01:46:35;;;;;;;7.13;5.37;;;;;;;11.36;92.76;101262.91;4987536;28;20216;-70
2023/10/10 01:49:02;;;;;;;7.60;5.63;;;;;;;11.36;92.86;101259.47;4987933;28;20641;-70
2023/10/10 01:51:33;;;;;;;7.60;6.17;;;;;;;11.37;93.23;101261.00;4989111;28;20615;-69
2023/10/10 01:54:06;;;;;;;9.83;6.63;;;;;;;11.37;93.07;101266.31;4989103;28;20213;-70
2023/10/10 01:56:32;;;;;;;8.97;6.13;;;;;;;11.39;93.10;101278.13;4985490;28;21020;-70
2023/10/10 01:59:03;;;;;;;8.13;5.90;;;;;;;11.39;93.67;101275.47;4997521;28;20222;-70
2023/10/10 02:01:31;;;;;;;9.23;6.70;;;;;;;11.40;93.40;101270.97;4997557;28;20340;-70
2023/10/10 02:03:58;;;;;;;10.73;7.17;;;;;;;11.41;93.94;101272.53;4988218;28;20235;-70
2023/10/10 02:06:27;;;;;;;11.90;7.00;;;;;;;11.42;93.42;101276.72;4991624;28;20349;-69
2023/10/10 02:08:56;;;;;;;12.43;7.47;;;;;;;11.42;93.66;101269.56;4988327;28;20215;-70
2023/10/10 02:11:24;;;;;;;13.30;7.93;;;;;;;11.44;93.41;101270.03;4988667;28;20339;-70
2023/10/10 02:13:50;;;;;;;12.93;7.20;;;;;;;11.44;93.84;101266.63;4987385;28;20212;-69
2023/10/10 02:16:18;;;;;;;13.00;7.07;;;;;;;11.44;93.13;101274.56;4988602;28;20205;-69
2023/10/10 02:18:51;;;;;;;10.47;7.00;;;;;;;11.45;93.17;101274.22;4989534;28;20212;-69
2023/10/10 02:21:31;;;;;;;11.17;6.97;;;;;;;11.45;93.42;101273.47;4990830;28;21230;-70
2023/10/10 02:24:09;;;;;;;12.07;6.87;;;;;;;11.46;93.84;101264.44;4990346;28;20416;-69
2023/10/10 02:26:37;;;;;;;13.03;6.50;;;;;;;11.46;93.66;101257.28;4994893;28;20596;-69
2023/10/10 02:29:17;;;;;;;10.93;6.90;;;;;;;11.48;94.24;101254.31;4994626;28;20215;-70
2023/10/10 02:31:48;;;;;;;13.07;6.53;;;;;;;11.49;93.65;101253.25;4992690;28;20581;-69
2023/10/10 02:34:14;;;;;;;12.00;7.27;;;;;;;11.49;94.25;101253.25;4993548;28;20216;-69
2023/10/10 02:36:42;;;;;;;13.03;7.00;;;;;;;11.49;93.50;101255.88;4994588;28;20240;-69
2023/10/10 02:41:59;;;;;;;13.33;6.63;;;;;;;11.52;94.08;101265.81;4989857;28;20270;-69
2023/10/10 02:44:46;;;;;;;11.57;6.13;;;;;;;11.52;94.18;101266.59;4993818;28;20228;-70
2023/10/10 02:47:13;;;;;;;10.40;6.27;;;;;;;11.53;94.09;101275.28;4992915;28;20928;-70
2023/10/10 02:49:42;;;;;;;14.97;6.93;;;;;;;11.53;93.56;101264.72;4992040;28;20890;-70
2023/10/10 02:52:14;;;;;;;12.50;6.60;;;;;;;11.54;94.54;101280.28;4997298;28;20445;-70
2023/10/10 02:54:53;;;;;;;12.60;7.00;;;;;;;11.54;94.20;101269.69;4992749;28;21694;-70
2023/10/10 02:57:34;;;;;;;14.07;6.47;;;;;;;11.55;94.63;101265.97;4988942;28;20492;-69
2023/10/10 03:02:57;;;;;;;10.30;5.87;;;;;;;11.58;94.58;101259.25;5029736;27;21189;-70
2023/10/10 03:05:43;;;;;;;12.17;6.70;;;;;;;11.58;94.10;101253.97;5028427;28;20595;-71
2023/10/10 03:08:17;;;;;;;11.90;6.73;;;;;;;11.59;94.13;101251.03;5021932;28;20304;-70
2023/10/10 03:10:53;;;;;;;11.67;5.87;;;;;;;11.59;94.21;101260.88;5024506;28;20946;-71
2023/10/10 03:13:31;;;;;;;10.63;6.20;;;;;;;11.61;94.80;101256.03;5025716;28;20215;-70
2023/10/10 03:16:29;;;;;;;17.00;6.87;;;;;;;11.62;94.35;101254.94;5059735;27;20208;-70
2023/10/10 03:19:13;;;;;;;14.73;6.33;;;;;;;11.64;94.32;101252.75;5028982;28;20200;-70
2023/10/10 03:21:50;;;;;;;17.10;6.90;;;;;;;11.64;94.77;101252.75;5025048;28;20257;-71
2023/10/10 03:24:30;;;;;;;13.70;6.40;;;;;;;11.66;94.38;101253.22;5025955;28;20914;-71
2023/10/10 03:27:01;;;;;;;20.07;6.80;;;;;;;11.66;94.54;101251.34;5027568;28;20215;-70
2023/10/10 03:29:37;;;;;;;13.60;6.07;;;;;;;11.68;94.28;101262.38;5022575;28;20216;-70
2023/10/10 03:32:19;;;;;;;12.53;6.43;;;;;;;11.69;94.18;101257.88;5021614;28;20368;-70
2023/10/10 03:34:56;;;;;;;12.43;6.37;;;;;;;11.70;94.50;101260.19;5024312;28;20218;-70
2023/10/10 03:37:30;;;;;;;13.40;6.40;;;;;;;11.71;94.69;101259.13;5024920;28;21775;-70
2023/10/10 03:39:57;;;;;;;15.47;5.97;;;;;;;11.73;94.29;101258.78;5030307;28;20728;-70
2023/10/10 05:24:17;;;;;;;11.60;6.33;;;;;;;12.32;95.16;101290.31;5005007;28;20699;-70
2023/10/10 05:26:47;;;;;;;10.00;6.20;;;;;;;12.34;95.08;101282.84;5005279;28;20224;-70
2023/10/10 05:29:19;;;;;;;9.33;6.27;;;;;;;12.37;95.11;101289.38;5005014;28;20287;-69
2023/10/10 05:31:45;;;;;;;12.97;6.50;;;;;;;12.38;95.15;101280.31;5012180;28;21541;-70
2023/10/10 05:34:14;;;;;;;12.00;6.70;;;;;;;12.41;95.05;101290.25;5013821;28;20210;-70
2023/10/10 05:36:41;;;;;;;11.47;6.50;;;;;;;12.43;95.21;101290.72;5013963;28;20206;-70
2023/10/10 05:39:09;;;;;;;12.27;6.57;;;;;;;12.45;95.10;101291.19;5015340;28;20221;-70
2023/10/10 05:41:40;;;;;;;10.23;6.70;;;;;;;12.46;95.01;101296.16;5012082;28;20391;-70
2023/10/10 05:44:07;;;;;;;9.73;6.20;;;;;;;12.49;95.38;101286.81;5014167;28;20209;-70
2023/10/10 05:46:35;;;;;;;10.60;6.47;;;;;;;12.51;95.16;101284.59;5011769;28;20399;-70
2023/10/10 05:49:03;;;;;;;11.73;6.73;;;;;;;12.54;95.32;101287.41;5013721;28;20311;-70
2023/10/10 05:51:29;;;;;;;11.33;6.67;;;;;;;12.56;95.37;101297.66;5012863;28;21250;-70
2023/10/10 05:53:56;;;;;;;9.20;6.40;;;;;;;12.58;95.69;101290.94;5013905;28;20214;-70
2023/10/10 05:56:23;;;;;;;11.83;6.30;;;;;;;12.61;95.64;101295.63;5011373;28;20740;-69
2023/10/10 05:58:52;;;;;;;10.23;6.67;;;;;;;12.63;95.47;101297.94;5010131;28;20220;-70
2023/10/10 06:01:19;;;;;;;11.47;6.43;;;;;;;12.66;95.65;101294.63;5011429;28;20245;-70
2023/10/10 06:03:46;;;;;;;9.50;6.40;;;;;;;12.70;95.71;101292.91;5010643;28;20217;-70
2023/10/10 06:06:13;;;;;;;13.23;6.87;;;;;;;12.72;95.55;101294.13;5008900;28;20216;-70
2023/10/10 06:08:41;;;;;;;11.00;6.63;;;;;;;12.76;95.72;101303.00;5013049;28;20252;-70
2023/10/10 06:11:08;;;;;;;13.97;7.83;;;;;;;12.79;95.80;101305.00;5012926;28;20229;-70
2023/10/10 06:13:39;;;;;;;11.53;6.80;;;;;;;12.84;95.84;101309.34;5010407;28;20207;-69
2023/10/10 06:16:08;;;;;;;9.43;5.73;;;;;;;12.88;96.01;101302.31;5014371;28;21594;-70
2023/10/10 06:18:35;;;;;;;9.67;6.23;;;;;;;12.92;96.14;101311.13;5011932;28;21465;-70
2023/10/10 06:21:07;;;;;;;10.80;5.47;;;;;;;12.95;96.21;101310.50;5012853;28;20211;-70
2023/10/10 06:23:35;;;;;;;8.00;5.73;;;;;;;12.97;96.45;101313.63;5012251;28;20209;-70
2023/10/10 06:26:01;;;;;;;8.57;5.37;;;;;;;13.01;96.53;101317.97;5012278;28;20614;-69
2023/10/10 06:28:29;;;;;;;7.30;5.30;;;;;;;13.05;97.09;101324.16;5011361;28;20836;-69
2023/10/10 06:30:56;;;;;;;6.60;4.87;;;;;;;13.11;97.83;101324.75;5009871;28;20248;-69
2023/10/10 06:33:27;;;;;;;7.77;5.43;;;;;;;13.15;97.57;101323.78;5009791;28;20206;-69
2023/10/10 06:36:18;;;;;;;10.30;5.77;;;;;;;13.21;97.83;101327.81;5013509;28;20409;-70
2023/10/10 06:38:46;;;;;;;8.70;5.07;;;;;;;13.29;98.61;101340.22;5012561;28;20229;-69
2023/10/10 06:41:17;;;;;;;7.70;5.50;;;;;;;13.35;98.62;101340.81;5009445;28;20375;-68
2023/10/10 06:43:46;;;;;;;7.43;5.27;;;;;;;13.42;98.69;101338.41;5008663;28;20214;-69
2023/10/10 06:46:17;;;;;;;7.30;4.40;;;;;;;13.45;98.61;101333.22;5014740;28;21042;-69
2023/10/10 06:48:47;;;;;;;7.20;4.87;;;;;;;13.53;98.58;101339.53;5009931;28;21372;-69
2023/10/10 06:51:15;;;;;;;6.87;5.00;;;;;;;13.58;98.43;101329.50;5012187;28;20278;-68
2023/10/10 06:53:45;;;;;;;9.07;6.30;;;;;;;13.65;98.55;101344.88;5014025;28;20210;-69
2023/10/10 06:56:19;;;;;;;12.47;6.53;;;;;;;13.71;98.09;101346.25;5014133;28;20932;-70
2023/10/10 06:58:45;;;;;;;9.37;5.97;;;;;;;13.78;98.97;101352.59;5012526;28;20275;-69
2023/10/10 07:01:12;;;;;;;6.57;4.90;;;;;;;13.87;98.93;101350.59;5015283;28;21392;-69
2023/10/10 07:03:42;;;;;;;6.60;5.20;;;;;;;13.92;99.17;101352.28;5009108;28;20226;-69
2023/10/10 07:06:09;;;;;;;6.63;4.67;;;;;;;13.99;99.08;101358.59;5012557;28;20363;-70
2023/10/10 07:08:35;;;;;;;6.97;4.50;;;;;;;14.04;98.78;101355.75;5011837;28;20624;-68
2023/10/10 07:11:02;;;;;;;7.10;4.47;;;;;;;14.09;98.64;101366.16;5010842;28;20313;-70
2023/10/10 07:13:30;;;;;;;5.87;4.40;;;;;;;14.14;98.45;101371.25;5013213;28;20230;-69
2023/10/10 07:15:57;;;;;;;6.00;3.93;;;;;;;14.17;98.13;101362.63;5012265;28;20210;-69
2023/10/10 07:18:23;;;;;;;5.07;3.73;;;;;;;14.22;98.13;101366.94;5013085;28;20204;-69
2023/10/10 07:21:08;;;;;;;6.33;3.90;;;;;;;14.25;98.07;101372.41;5013630;28;20232;-69
2023/10/10 07:23:38;;;;;;;4.83;3.87;;;;;;;14.27;97.61;101374.72;5009906;28;20231;-70
2023/10/10 07:26:06;;;;;;;4.57;3.47;;;;;;;14.29;97.30;101380.50;5012883;28;20243;-69
2023/10/10 07:28:47;;;;;;;5.33;3.70;;;;;;;14.32;97.45;101387.78;5013660;28;20206;-69
2023/10/10 07:31:17;;;;;;;8.23;4.33;;;;;;;14.34;97.26;101380.28;5011137;28;21660;-69
2023/10/10 07:33:44;;;;;;;7.00;4.60;;;;;;;14.37;96.84;101380.38;5010337;28;21733;-69
2023/10/10 07:36:13;;;;;;;9.93;7.43;;;;;;;14.40;97.15;101382.38;5012317;28;20701;-69
2023/10/10 07:38:39;;;;;;;9.13;6.83;;;;;;;14.45;97.15;101382.16;5010584;28;20210;-69
2023/10/10 07:41:06;;;;;;;8.77;5.67;;;;;;;14.51;97.62;101377.41;5013466;28;21788;-70
2023/10/10 07:43:35;;;;;;;8.47;5.00;;;;;;;14.57;97.54;101382.16;5014535;28;20236;-69
2023/10/10 07:46:12;;;;;;;6.63;3.87;;;;;;;14.64;97.45;101379.72;5013769;28;20224;-69
2023/10/10 07:48:39;;;;;;;4.17;3.23;;;;;;;14.69;97.18;101376.84;5010592;28;20697;-69
2023/10/10 07:51:08;;;;;;;4.43;2.73;;;;;;;14.73;96.87;101376.94;5016097;28;20212;-69
2023/10/10 07:53:42;;;;;;;3.90;3.50;;;;;;;14.78;96.52;101377.50;5017135;28;22043;-69
2023/10/10 07:56:09;;;;;;;4.23;2.80;;;;;;;14.82;96.34;101378.41;5016553;28;20212;-70
2023/10/10 07:58:50;;;;;;;3.77;2.63;;;;;;;14.81;95.97;101373.41;5014801;28;20215;-70
2023/10/10 08:01:17;;;;;;;3.27;2.30;;;;;;;14.84;95.97;101383.34;5015801;28;20229;-70
2023/10/10 08:03:45;;;;;;;3.77;2.23;;;;;;;14.84;95.40;101378.03;5014282;28;20954;-70
2023/10/10 08:06:11;;;;;;;4.10;2.17;;;;;;;14.81;94.67;101378.72;5015820;28;20218;-69
2023/10/10 08:08:40;;;;;;;3.17;1.97;;;;;;;14.85;94.65;101383.03;5012763;28;20221;-70
2023/10/10 08:11:12;;;;;;;4.70;2.40;;;;;;;14.84;95.11;101375.38;5014262;28;20210;-70
2023/10/10 08:13:48;;;;;;;8.83;2.53;;;;;;;14.86;94.86;101383.81;5008867;28;20229;-69
2023/10/10 08:16:19;;;;;;;2.70;2.40;;;;;;;14.86;94.51;101381.16;5016246;28;20341;-70
2023/10/10 08:18:52;;;;;;;4.43;2.60;;;;;;;14.88;94.79;101384.25;5014623;28;20656;-70
2023/10/10 08:21:22;;;;;;;3.03;2.60;;;;;;;14.90;94.52;101387.38;5016609;28;20933;-69
2023/10/10 08:23:51;;;;;;;5.30;2.80;;;;;;;14.88;94.62;101384.25;5015697;28;20233;-70
2023/10/10 08:26:18;;;;;;;4.93;2.67;;;;;;;14.91;94.50;101379.03;5017344;28;20694;-70
2023/10/10 08:28:46;;;;;;;3.10;2.70;;;;;;;14.94;94.58;101381.03;5017432;28;21482;-70
2023/10/10 08:31:14;;;;;;;4.13;2.60;;;;;;;14.97;94.18;101383.03;5014689;28;20243;-70
2023/10/10 08:33:44;;;;;;;3.93;2.77;;;;;;;15.03;94.41;101386.22;5011621;28;20203;-70
2023/10/10 08:36:12;;;;;;;4.77;3.10;;;;;;;15.08;94.94;101389.44;5016843;28;20217;-69
2023/10/10 08:38:42;;;;;;;3.60;3.17;;;;;;;15.13;94.42;101386.56;5016205;28;20545;-69
2023/10/10 08:41:09;;;;;;;5.00;2.90;;;;;;;15.18;94.38;101381.00;5014421;28;20230;-70
2023/10/10 08:43:38;;;;;;;5.63;2.73;;;;;;;15.25;94.66;101386.50;5014939;28;20314;-69
2023/10/10 08:46:10;;;;;;;6.23;3.70;;;;;;;15.30;94.05;101386.28;5011546;28;20344;-70
2023/10/10 08:48:38;;;;;;;4.23;3.70;;;;;;;15.36;93.87;101384.19;5013869;28;20830;-70
2023/10/10 08:51:05;;;;;;;4.57;3.30;;;;;;;15.42;93.93;101391.59;5015679;28;20236;-69
2023/10/10 08:53:35;;;;;;;4.27;3.07;;;;;;;15.48;93.66;101384.16;5014163;28;20209;-69
2023/10/10 08:56:03;;;;;;;5.13;2.80;;;;;;;15.53;93.44;101379.34;5013379;28;20291;-69
2023/10/10 08:58:31;;;;;;;4.63;2.80;;;;;;;15.58;93.02;101389.75;5014558;28;21536;-68
2023/10/10 09:00:58;;;;;;;3.40;2.70;;;;;;;15.64;92.99;101390.31;5010707;28;20641;-69
2023/10/10 09:03:26;;;;;;;4.03;2.90;;;;;;;15.63;91.58;101388.75;5014985;28;20362;-69
2023/10/10 09:05:53;;;;;;;3.33;2.70;;;;;;;15.68;91.26;101396.50;5015550;28;21788;-69
2023/10/10 09:08:26;;;;;;;2.70;2.50;;;;;;;15.73;91.35;101396.25;5012815;28;21407;-72
2023/10/10 09:10:56;;;;;;;3.83;3.27;;;;;;;15.78;91.42;101402.09;5016270;28;20206;-70
2023/10/10 09:13:25;;;;;;;2.73;2.47;;;;;;;15.84;91.78;101395.41;5013175;28;20218;-71
2023/10/10 09:15:55;;;;;;;5.77;3.20;;;;;;;15.86;90.63;101392.41;5016463;28;20260;-69
2023/10/10 09:18:25;;;;;;;3.53;2.73;;;;;;;15.92;90.73;101391.03;5016811;28;20218;-68
2023/10/10 09:20:54;;;;;;;4.87;2.60;;;;;;;16.00;91.21;101396.22;5011968;28;21277;-69
2023/10/10 09:23:22;;;;;;;4.07;2.60;;;;;;;16.04;91.37;101407.00;5016782;28;20688;-69
2023/10/10 09:25:57;;;;;;;4.43;2.90;;;;;;;16.09;90.78;101406.75;5017551;28;20275;-69
2023/10/10 09:28:30;;;;;;;4.13;2.90;;;;;;;16.10;90.06;101409.03;5015628;28;21396;-71
2023/10/10 09:31:00;;;;;;;3.03;2.70;;;;;;;16.11;89.24;101409.81;5013206;28;20207;-71
2023/10/10 09:33:29;;;;;;;3.50;2.90;;;;;;;16.14;89.71;101417.91;5016927;28;21460;-71
2023/10/10 09:36:08;;;;;;;4.77;3.47;;;;;;;16.15;89.82;101406.13;5009429;28;20215;-71
2023/10/10 09:38:36;;;;;;;3.73;3.20;;;;;;;16.14;89.25;101414.47;5010617;28;20215;-69
2023/10/10 09:41:14;;;;;;;3.73;3.40;;;;;;;16.11;88.77;101420.47;5015321;28;20311;-69
2023/10/10 09:43:50;;;;;;;4.37;3.50;;;;;;;16.13;88.70;101424.34;5014771;28;20228;-68
2023/10/10 09:46:35;;;;;;;4.47;3.30;;;;;;;16.13;88.83;101416.34;5015731;28;20214;-69
2023/10/10 09:49:29;;;;;;;5.40;3.10;;;;;;;16.12;89.01;101419.34;5011101;28;20767;-69
2023/10/10 09:54:44;;;;;;;4.37;3.20;;;;;;;16.12;88.25;101417.47;5013797;28;21012;-69
2023/10/10 09:57:13;;;;;;;4.90;3.43;;;;;;;16.07;87.68;101419.59;5015112;28;20207;-69
2023/10/10 09:59:42;;;;;;;7.27;5.33;;;;;;;16.09;88.03;101430.72;5011004;28;20218;-69
2023/10/10 10:02:14;;;;;;;7.67;4.93;;;;;;;16.12;88.19;101422.81;5015077;28;20995;-70
2023/10/10 10:04:44;;;;;;;4.67;4.17;;;;;;;16.16;88.55;101420.22;5016885;28;20912;-70
2023/10/10 10:07:37;;;;;;;5.83;3.97;;;;;;;16.21;88.53;101425.31;5014041;28;20211;-69
2023/10/10 10:10:20;;;;;;;4.43;3.60;;;;;;;16.26;88.99;101433.06;5011480;28;20206;-69
2023/10/10 10:13:14;;;;;;;4.23;3.60;;;;;;;16.31;88.68;101435.47;5012935;28;20599;-69
2023/10/10 10:15:54;;;;;;;5.13;3.77;;;;;;;16.35;88.48;101439.00;5015841;28;20696;-68
2023/10/10 10:18:28;;;;;;;4.07;3.70;;;;;;;16.39;88.00;101437.22;5016256;28;20217;-69
2023/10/10 10:23:45;;;;;;;6.47;4.00;;;;;;;16.58;88.74;101434.66;5011469;28;20446;-69
2023/10/10 10:26:12;;;;;;;3.50;3.20;;;;;;;16.67;87.51;101433.34;5014551;28;20340;-70
2023/10/10 10:28:42;;;;;;;5.97;3.20;;;;;;;16.79;87.96;101435.16;5009284;28;20214;-68
2023/10/10 10:31:16;;;;;;;7.73;3.40;;;;;;;16.86;86.95;101422.00;5014104;28;20235;-70
2023/10/10 10:34:05;;;;;;;3.57;2.80;;;;;;;16.91;86.04;101427.03;5011054;28;20293;-69
2023/10/10 10:36:41;;;;;;;6.27;3.07;;;;;;;16.91;84.80;101424.38;5024256;28;20406;-70
2023/10/10 10:39:21;;;;;;;4.07;2.83;;;;;;;16.94;85.02;101429.03;5011842;28;21371;-68
2023/10/10 10:41:53;;;;;;;4.50;2.90;;;;;;;16.93;83.80;101430.91;5010694;28;20982;-68
2023/10/10 10:44:53;;;;;;;2.80;2.60;;;;;;;16.92;83.69;101424.03;5012966;28;20226;-69
2023/10/10 10:47:53;;;;;;;4.43;2.83;;;;;;;16.91;83.49;101427.81;5001707;28;21205;-69
2023/10/10 10:50:40;;;;;;;3.67;2.57;;;;;;;16.87;82.77;101428.88;5012149;28;20652;-68
2023/10/10 10:53:20;;;;;;;4.47;3.10;;;;;;;16.88;83.16;101435.75;5014908;28;20226;-68
2023/10/10 10:56:06;;;;;;;3.30;3.00;;;;;;;16.88;82.89;101427.75;5013541;28;20776;-70
2023/10/10 10:58:32;;;;;;;3.73;3.33;;;;;;;16.90;83.24;101423.59;5013486;28;20581;-69
2023/10/10 11:01:07;;;;;;;4.37;3.10;;;;;;;16.95;83.89;101417.22;5011801;28;20337;-68
2023/10/10 11:03:37;;;;;;;3.73;3.00;;;;;;;17.01;84.44;101421.16;5012015;28;20313;-69
2023/10/10 11:06:06;;;;;;;3.00;2.80;;;;;;;17.08;83.32;101416.75;5013888;28;20949;-69
2023/10/10 11:11:27;;;;;;;4.20;3.00;;;;;;;17.28;83.97;101407.66;5016606;28;20234;-69
2023/10/10 11:13:55;;;;;;;5.17;3.43;;;;;;;17.35;82.86;101413.16;5014251;28;20374;-70
2023/10/10 11:16:25;;;;;;;4.37;3.07;;;;;;;17.45;83.26;101420.66;5014165;28;20287;-70
2023/10/10 11:18:57;;;;;;;4.93;3.13;;;;;;;17.53;81.13;101419.66;5013602;28;21968;-69
2023/10/10 11:21:27;;;;;;;3.47;3.17;;;;;;;17.63;81.11;101418.31;5013919;28;20237;-68
2023/10/10 11:23:57;;;;;;;3.70;2.73;;;;;;;17.72;80.18;101418.88;5016020;28;20294;-69
2023/10/10 11:26:33;;;;;;;3.10;2.70;;;;;;;17.74;80.15;101414.72;5016462;28;21430;-69
2023/10/10 11:28:59;;;;;;;5.23;2.87;;;;;;;17.82;80.05;101416.41;5014941;28;21514;-69
2023/10/10 11:31:29;;;;;;;3.83;2.90;;;;;;;17.85;78.81;101410.34;5016862;28;20989;-68
2023/10/10 11:34:10;;;;;;;3.17;2.77;;;;;;;17.91;78.19;101414.28;5015053;28;20914;-69
2023/10/10 11:36:39;;;;;;;4.13;2.43;;;;;;;18.00;77.81;101414.06;5006462;28;20588;-69
2023/10/10 11:39:24;;;;;;;2.70;2.30;;;;;;;18.04;78.10;101410.34;5013782;28;20901;-69
2023/10/10 11:41:52;;;;;;;4.50;2.07;;;;;;;18.06;78.73;101405.38;5011873;28;20330;-70
2023/10/10 11:44:20;;;;;;;3.50;2.30;;;;;;;18.07;77.21;101398.91;5017400;28;20218;-69
2023/10/10 11:46:49;;;;;;;2.47;2.23;;;;;;;18.08;77.22;101397.03;5015242;28;20326;-70
2023/10/10 11:49:16;;;;;;;2.60;2.00;;;;;;;18.12;77.52;101393.28;5016289;28;21142;-69
2023/10/10 11:51:42;;;;;;;2.30;2.00;;;;;;;18.09;76.73;101390.53;5018097;28;20328;-69
2023/10/10 11:54:09;;;;;;;2.40;2.20;;;;;;;18.09;77.52;101391.31;5017101;28;20217;-70
2023/10/10 11:56:35;;;;;;;4.00;2.47;;;;;;;18.13;80.36;101386.03;5016465;28;20865;-68
2023/10/10 11:59:09;;;;;;;3.07;1.90;;;;;;;18.14;76.99;101382.22;5017264;28;20210;-69
2023/10/10 12:01:51;;;;;;;4.20;2.20;;;;;;;18.14;77.33;101382.22;5015382;28;20814;-70
2023/10/10 12:04:33;;;;;;;2.37;2.17;;;;;;;18.12;76.34;101365.78;5015314;28;20303;-70
2023/10/10 12:07:00;;;;;;;2.30;2.10;;;;;;;18.16;76.89;101364.72;5012301;28;20216;-69
2023/10/10 12:09:27;;;;;;;1.97;1.70;;;;;;;18.13;77.10;101360.09;5014463;28;20213;-69
2023/10/10 12:11:58;;;;;;;2.40;2.20;;;;;;;18.15;76.17;101367.72;5014298;28;20526;-69
2023/10/10 12:14:29;;;;;;;2.83;2.00;;;;;;;18.14;76.43;101360.84;5018572;28;20206;-70
2023/10/10 12:16:57;;;;;;;3.83;3.20;;;;;;;18.15;76.66;101357.03;5013981;28;20328;-70
2023/10/10 12:19:24;;;;;;;3.83;2.20;;;;;;;18.16;77.18;101351.34;5018037;28;20206;-69
2023/10/10 12:21:51;;;;;;;5.00;1.93;;;;;;;18.17;75.36;101350.22;5012424;28;20237;-69
2023/10/10 12:24:18;;;;;;;2.87;1.83;;;;;;;18.23;77.17;101351.47;5017559;28;20948;-69
2023/10/10 12:26:44;;;;;;;3.43;1.70;;;;;;;18.29;78.29;101358.06;5016794;28;20213;-69
2023/10/10 12:29:11;;;;;;;1.93;1.73;;;;;;;18.32;76.17;101357.34;5018124;28;20217;-69
2023/10/10 12:31:38;;;;;;;2.63;1.93;;;;;;;18.31;75.24;101355.03;5015567;28;20313;-69
2023/10/10 12:34:09;;;;;;;4.47;3.27;;;;;;;18.30;74.78;101358.81;5015876;28;20756;-69
2023/10/10 12:36:36;;;;;;;1.90;1.60;;;;;;;18.28;74.71;101358.41;5011908;28;20327;-70
2023/10/10 12:39:04;;;;;;;2.97;1.60;;;;;;;18.24;73.73;101360.25;5008862;28;20214;-69
2023/10/10 12:41:35;;;;;;;2.40;1.77;;;;;;;18.25;75.11;101357.22;5016010;28;20746;-69
2023/10/10 12:44:06;;;;;;;1.60;1.50;;;;;;;18.18;74.02;101361.69;5014956;28;20611;-69
2023/10/10 12:46:34;;;;;;;2.20;1.60;;;;;;;18.13;74.59;101368.13;5014315;28;20206;-68
2023/10/10 12:49:01;;;;;;;1.80;1.70;;;;;;;18.06;73.64;101372.56;5014654;28;21486;-69
2023/10/10 12:51:28;;;;;;;1.60;1.40;;;;;;;18.08;73.57;101363.06;5018519;28;20893;-69
2023/10/10 12:54:04;;;;;;;2.30;1.40;;;;;;;18.10;74.34;101365.34;5015571;28;20977;-70
2023/10/10 12:56:30;;;;;;;4.00;1.50;;;;;;;18.17;73.51;101357.47;5017175;28;20217;-69
2023/10/10 12:59:03;;;;;;;2.30;1.50;;;;;;;18.20;73.23;101349.50;5008234;28;20210;-72
2023/10/10 13:01:32;;;;;;;3.13;1.37;;;;;;;18.27;73.87;101348.84;5013743;28;20864;-69
2023/10/10 13:03:59;;;;;;;1.53;1.40;;;;;;;18.36;74.74;101355.53;5014196;28;20228;-69
2023/10/10 13:06:28;;;;;;;2.40;1.57;;;;;;;18.48;74.67;101351.88;5015709;28;20292;-69
2023/10/10 13:08:56;;;;;;;1.63;1.40;;;;;;;18.55;71.78;101349.31;5014731;28;20217;-69
2023/10/10 13:11:32;;;;;;;2.90;1.30;;;;;;;18.63;72.80;101348.28;5011952;28;20684;-69
2023/10/10 13:14:08;;;;;;;2.13;1.73;;;;;;;18.67;72.24;101347.19;5013202;28;20206;-69
2023/10/10 13:16:52;;;;;;;2.10;1.67;;;;;;;18.71;72.70;101352.59;5015036;28;20293;-69
2023/10/10 13:19:20;;;;;;;2.23;1.50;;;;;;;18.68;70.09;101356.00;5013325;28;20237;-69
2023/10/10 13:21:48;;;;;;;2.17;1.30;;;;;;;18.71;72.23;101348.03;5011077;28;20261;-70
2023/10/10 13:24:15;;;;;;;1.23;1.13;;;;;;;18.73;72.16;101348.44;5012823;28;20241;-68
2023/10/10 13:26:45;;;;;;;2.47;1.27;;;;;;;18.72;70.98;101335.41;5016749;28;20529;-69
2023/10/10 13:29:13;;;;;;;3.53;1.50;;;;;;;18.73;75.43;101329.69;5015044;28;20780;-69
2023/10/10 13:31:41;;;;;;;2.77;1.63;;;;;;;18.67;71.97;101339.16;5012417;28;20226;-69
2023/10/10 13:34:07;;;;;;;2.53;1.33;;;;;;;18.64;72.73;101323.06;5014187;28;20202;-69
2023/10/10 13:36:33;;;;;;;1.57;1.40;;;;;;;18.58;71.91;101337.91;5011487;28;20211;-68
2023/10/10 13:39:05;;;;;;;1.93;1.73;;;;;;;18.54;71.86;101331.72;5015118;28;20214;-68
2023/10/10 13:41:35;;;;;;;2.30;1.20;;;;;;;18.55;75.16;101343.97;5016894;28;20371;-68